| time (UTC) | temp C | wind direction | speed KPH | gust KPH | rain 1hr cm | rain 24hr cm | rain mn cm | humidity % | barometer mb |
| 20260502195017 | 31 | 271 | 6.4 | 16.1 | 0.00 | 0.00 | 0.00 | 66 | 1007.9 |
| 20260502194537 | 31 | 225 | 4.8 | 17.7 | 0.00 | 0.00 | 0.00 | 67 | 1008.0 |
| 20260502194048 | 31 | 244 | 8.0 | 17.7 | 0.00 | 0.00 | 0.00 | 66 | 1008.0 |
| 20260502193607 | 31 | 235 | 6.4 | 16.1 | 0.00 | 0.00 | 0.00 | 66 | 1008.0 |
| 20260502193012 | 31 | 239 | 6.4 | 16.1 | 0.00 | 0.00 | 0.00 | 66 | 1008.0 |
| 20260502192527 | 31 | 267 | 4.8 | 16.1 | 0.00 | 0.00 | 0.00 | 68 | 1007.9 |
| 20260502192054 | 31 | 215 | 6.4 | 16.1 | 0.00 | 0.00 | 0.00 | 68 | 1007.9 |
| 20260502191616 | 30 | 327 | 4.8 | 19.3 | 0.00 | 0.00 | 0.00 | 68 | 1007.9 |
| 20260502191132 | 30 | 175 | 6.4 | 19.3 | 0.00 | 0.00 | 0.00 | 67 | 1008.0 |
| 20260502190520 | 30 | 223 | 8.0 | 16.1 | 0.00 | 0.00 | 0.00 | 67 | 1008.1 |
| 20260502190050 | 31 | 184 | 8.0 | 17.7 | 0.00 | 0.00 | 0.00 | 68 | 1008.1 |
| 20260502185614 | 31 | 235 | 4.8 | 17.7 | 0.00 | 0.00 | 0.00 | 68 | 1008.1 |
| 20260502185008 | 30 | 270 | 9.7 | 19.3 | 0.00 | 0.00 | 0.00 | 67 | 1008.2 |
| 20260502184526 | 31 | 250 | 6.4 | 19.3 | 0.00 | 0.00 | 0.00 | 66 | 1008.3 |
| 20260502184103 | 31 | 270 | 6.4 | 12.9 | 0.00 | 0.00 | 0.00 | 67 | 1008.4 |
| 20260502183613 | 30 | 226 | 6.4 | 14.5 | 0.00 | 0.00 | 0.00 | 68 | 1008.4 |
| 20260502183013 | 30 | 249 | 6.4 | 14.5 | 0.00 | 0.00 | 0.00 | 67 | 1008.4 |
| 20260502182529 | 30 | 223 | 8.0 | 16.1 | 0.00 | 0.00 | 0.00 | 68 | 1008.5 |
| 20260502182123 | 30 | 230 | 8.0 | 16.1 | 0.00 | 0.00 | 0.00 | 68 | 1008.5 |
| 20260502181504 | 30 | 173 | 8.0 | 16.1 | 0.00 | 0.00 | 0.00 | 68 | 1008.6 |
| 20260502181108 | 30 | 192 | 8.0 | 16.1 | 0.00 | 0.00 | 0.00 | 68 | 1008.6 |
| 20260502180631 | 30 | 192 | 6.4 | 19.3 | 0.00 | 0.00 | 0.00 | 67 | 1008.7 |
| 20260502164054 | 29 | 260 | 4.8 | 12.9 | 0.00 | 0.00 | 0.00 | 69 | 1008.8 |
| 20260502163612 | 30 | 263 | 6.4 | 12.9 | 0.00 | 0.00 | 0.00 | 68 | 1008.8 |
| 20260502163023 | 30 | 261 | 4.8 | 12.9 | 0.00 | 0.00 | 0.00 | 68 | 1008.7 |
| 20260502162538 | 30 | 215 | 8.0 | 12.9 | 0.00 | 0.00 | 0.00 | 67 | 1008.7 |
| 20260502162109 | 30 | 219 | 4.8 | 11.3 | 0.00 | 0.00 | 0.00 | 67 | 1008.7 |
| 20260502161628 | 30 | 275 | 4.8 | 11.3 | 0.00 | 0.00 | 0.00 | 67 | 1008.7 |
| 20260502161046 | 30 | 194 | 4.8 | 9.7 | 0.00 | 0.00 | 0.00 | 67 | 1008.8 |
| 20260502160606 | 30 | 233 | 3.2 | 12.9 | 0.00 | 0.00 | 0.00 | 67 | 1008.7 |
| 20260502152110 | 28 | 257 | 3.2 | 9.7 | 0.00 | 0.00 | 0.00 | 68 | 1008.5 |
| 20260502151626 | 28 | 254 | 4.8 | 9.7 | 0.00 | 0.00 | 0.00 | 67 | 1008.5 |
| 20260502151050 | 28 | 216 | 3.2 | 6.4 | 0.00 | 0.00 | 0.00 | 68 | 1008.5 |
| 20260502150604 | 27 | 242 | 1.6 | 6.4 | 0.00 | 0.00 | 0.00 | 68 | 1008.5 |
| 20260502130532 | 25 | 67 | 0.0 | 0.0 | 0.00 | 0.00 | 0.00 | 75 | 1007.2 |
| 20260502123616 | 25 | 67 | 0.0 | 0.0 | 0.00 | 0.00 | 0.00 | 73 | 1006.9 |
| 20260502123008 | 25 | 67 | 0.0 | 0.0 | 0.00 | 0.00 | 0.00 | 74 | 1006.9 |
| 20260502122524 | 25 | 67 | 0.0 | 0.0 | 0.00 | 0.00 | 0.00 | 74 | 1006.9 |
| 20260502122107 | 25 | 67 | 0.0 | 0.0 | 0.00 | 0.00 | 0.00 | 75 | 1006.8 |
| 20260502121626 | 25 | 67 | 0.0 | 0.0 | 0.00 | 0.00 | 0.00 | 76 | 1006.8 |
| 20260502121020 | 25 | 67 | 0.0 | 0.0 | 0.00 | 0.00 | 0.00 | 76 | 1006.7 |
| 20260502120536 | 25 | 67 | 0.0 | 0.0 | 0.00 | 0.00 | 0.00 | 76 | 1006.6 |
| 20260502115533 | 26 | 67 | 0.0 | 0.0 | 0.00 | 0.00 | 0.00 | 76 | 1006.6 |
| 20260502115048 | 26 | 67 | 0.0 | 0.0 | 0.00 | 0.00 | 0.00 | 76 | 1006.5 |
| 20260502114612 | 26 | 67 | 0.0 | 3.2 | 0.00 | 0.00 | 0.00 | 76 | 1006.6 |
| 20260502114051 | 26 | 67 | 0.0 | 3.2 | 0.00 | 0.00 | 0.00 | 76 | 1006.5 |
| 20260502113550 | 26 | 67 | 0.0 | 3.2 | 0.00 | 0.00 | 0.00 | 76 | 1006.5 |
| 20260502113050 | 26 | 67 | 0.0 | 3.2 | 0.00 | 0.00 | 0.00 | 76 | 1006.4 |
| 20260502112549 | 26 | 67 | 0.0 | 3.2 | 0.00 | 0.00 | 0.00 | 76 | 1006.4 |
| 20260502112049 | 26 | 67 | 0.0 | 4.8 | 0.00 | 0.00 | 0.00 | 76 | 1006.4 |
| 20260502111553 | 26 | 68 | 0.0 | 3.2 | 0.00 | 0.00 | 0.00 | 76 | 1006.4 |
| 20260502111050 | 26 | 71 | 0.0 | 0.0 | 0.00 | 0.00 | 0.00 | 76 | 1006.4 |
| 20260502110548 | 26 | 71 | 0.0 | 1.6 | 0.00 | 0.00 | 0.00 | 77 | 1006.4 |
| 20260502110051 | 26 | 71 | 0.0 | 3.2 | 0.00 | 0.00 | 0.00 | 77 | 1006.4 |
| 20260502105547 | 26 | 71 | 0.0 | 3.2 | 0.00 | 0.00 | 0.00 | 77 | 1006.4 |
| 20260502105047 | 26 | 71 | 0.0 | 3.2 | 0.00 | 0.00 | 0.00 | 77 | 1006.4 |
| 20260502104552 | 26 | 71 | 0.0 | 3.2 | 0.00 | 0.00 | 0.00 | 77 | 1006.4 |
| 20260502104047 | 26 | 71 | 0.0 | 4.8 | 0.00 | 0.00 | 0.00 | 77 | 1006.4 |
| 20260502103546 | 26 | 71 | 0.0 | 6.4 | 0.00 | 0.00 | 0.00 | 77 | 1006.5 |
| 20260502103047 | 26 | 65 | 1.6 | 6.4 | 0.00 | 0.00 | 0.00 | 77 | 1006.5 |
| 20260502102546 | 26 | 53 | 0.0 | 4.8 | 0.00 | 0.00 | 0.00 | 77 | 1006.5 |
| 20260502102046 | 26 | 53 | 0.0 | 4.8 | 0.00 | 0.00 | 0.00 | 77 | 1006.6 |
| 20260502101548 | 26 | 57 | 0.0 | 3.2 | 0.00 | 0.00 | 0.00 | 78 | 1006.5 |
| 20260502101045 | 26 | 55 | 1.6 | 4.8 | 0.00 | 0.00 | 0.00 | 78 | 1006.6 |
| 20260502100544 | 26 | 35 | 0.0 | 6.4 | 0.00 | 0.00 | 0.00 | 78 | 1006.5 |
| 20260502091040 | 26 | 124 | 0.0 | 0.0 | 0.00 | 0.00 | 0.00 | 80 | 1006.6 |
| 20260502090541 | 26 | 124 | 0.0 | 0.0 | 0.00 | 0.00 | 0.00 | 80 | 1006.7 |
| 20260502071030 | 26 | 134 | 0.0 | 0.0 | 0.00 | 0.00 | 0.00 | 79 | 1007.2 |
| 20260502070530 | 26 | 134 | 0.0 | 0.0 | 0.00 | 0.00 | 0.00 | 79 | 1007.2 |
| 20260502070030 | 26 | 134 | 0.0 | 1.6 | 0.00 | 0.00 | 0.00 | 79 | 1007.3 |
| 20260502065530 | 26 | 134 | 0.0 | 1.6 | 0.00 | 0.00 | 0.00 | 79 | 1007.4 |
| 20260502065034 | 26 | 134 | 0.0 | 4.8 | 0.00 | 0.00 | 0.00 | 79 | 1007.3 |
| 20260502064529 | 26 | 134 | 1.6 | 4.8 | 0.00 | 0.00 | 0.00 | 79 | 1007.4 |
| 20260502064029 | 26 | 186 | 0.0 | 3.2 | 0.00 | 0.00 | 0.00 | 79 | 1007.4 |
| 20260502063528 | 26 | 186 | 0.0 | 1.6 | 0.00 | 0.00 | 0.00 | 79 | 1007.4 |
| 20260502063029 | 26 | 186 | 0.0 | 1.6 | 0.00 | 0.00 | 0.00 | 78 | 1007.4 |
| 20260502062527 | 26 | 186 | 0.0 | 1.6 | 0.00 | 0.00 | 0.00 | 78 | 1007.3 |
| 20260502062029 | 26 | 186 | 0.0 | 1.6 | 0.00 | 0.00 | 0.00 | 78 | 1007.3 |
| 20260502061513 | 26 | 186 | 0.0 | 0.0 | 0.00 | 0.00 | 0.00 | 78 | 1007.3 |
| 20260502061012 | 26 | 186 | 0.0 | 0.0 | 0.00 | 0.00 | 0.00 | 78 | 1007.3 |
| 20260502060512 | 26 | 186 | 0.0 | 1.6 | 0.00 | 0.00 | 0.00 | 78 | 1007.3 |
| 20260502060011 | 26 | 186 | 0.0 | 3.2 | 0.00 | 0.00 | 0.00 | 78 | 1007.2 |
| 20260502055612 | 26 | 186 | 0.0 | 3.2 | 0.00 | 0.00 | 0.00 | 78 | 1007.3 |
| 20260502055018 | 26 | 186 | 0.0 | 1.6 | 0.00 | 0.00 | 0.00 | 78 | 1007.2 |
| 20260502054532 | 26 | 187 | 0.0 | 1.6 | 0.00 | 0.00 | 0.00 | 78 | 1007.2 |
| 20260502054053 | 26 | 187 | 0.0 | 3.2 | 0.00 | 0.00 | 0.00 | 79 | 1007.2 |
| 20260502053617 | 26 | 187 | 0.0 | 3.2 | 0.00 | 0.00 | 0.00 | 79 | 1007.2 |
| 20260502053001 | 26 | 188 | 0.0 | 3.2 | 0.00 | 0.00 | 0.00 | 79 | 1007.1 |
| 20260502052521 | 26 | 188 | 0.0 | 1.6 | 0.00 | 0.00 | 0.00 | 79 | 1007.1 |
| 20260502052057 | 26 | 188 | 0.0 | 1.6 | 0.00 | 0.00 | 0.00 | 79 | 1007.2 |
| 20260502051702 | 26 | 188 | 0.0 | 1.6 | 0.00 | 0.00 | 0.00 | 79 | 1007.2 |
| 20260502051011 | 26 | 188 | 0.0 | 1.6 | 0.00 | 0.00 | 0.00 | 79 | 1007.1 |
| 20260502050530 | 26 | 188 | 0.0 | 1.6 | 0.00 | 0.00 | 0.00 | 79 | 1007.1 |
| 20260502050052 | 26 | 188 | 0.0 | 3.2 | 0.00 | 0.00 | 0.00 | 80 | 1007.1 |
| 20260502045534 | 26 | 188 | 0.0 | 3.2 | 0.00 | 0.00 | 0.00 | 80 | 1007.0 |
| 20260502045051 | 26 | 188 | 0.0 | 3.2 | 0.00 | 0.00 | 0.00 | 80 | 1007.0 |
| 20260502044610 | 26 | 188 | 0.0 | 3.2 | 0.00 | 0.00 | 0.00 | 80 | 1007.0 |
| 20260502044013 | 26 | 188 | 0.0 | 3.2 | 0.00 | 0.00 | 0.00 | 80 | 1007.0 |
| 20260502043536 | 26 | 191 | 0.0 | 0.0 | 0.00 | 0.00 | 0.00 | 80 | 1006.9 |
| 20260502043127 | 26 | 191 | 0.0 | 0.0 | 0.00 | 0.00 | 0.00 | 80 | 1007.0 |
| 20260502042515 | 26 | 191 | 0.0 | 0.0 | 0.00 | 0.00 | 0.00 | 80 | 1006.9 |
| 20260502042051 | 26 | 191 | 0.0 | 0.0 | 0.00 | 0.00 | 0.00 | 81 | 1007.0 |
| 20260502041602 | 26 | 192 | 0.0 | 0.0 | 0.00 | 0.00 | 0.00 | 81 | 1006.9 |
| 20260502041005 | 26 | 192 | 0.0 | 0.0 | 0.00 | 0.00 | 0.00 | 81 | 1006.9 |
| 20260502040527 | 26 | 225 | 0.0 | 0.0 | 0.00 | 0.00 | 0.00 | 81 | 1006.9 |
| 20260502040051 | 26 | 234 | 0.0 | 0.0 | 0.00 | 0.00 | 0.00 | 82 | 1006.8 |
| 20260502035622 | 26 | 234 | 0.0 | 0.0 | 0.00 | 0.00 | 0.00 | 82 | 1006.8 |
| 20260502035019 | 26 | 234 | 0.0 | 0.0 | 0.00 | 0.00 | 0.00 | 83 | 1006.8 |
| 20260502034542 | 27 | 234 | 0.0 | 1.6 | 0.00 | 0.00 | 0.00 | 83 | 1006.7 |
| 20260502034055 | 27 | 234 | 0.0 | 3.2 | 0.00 | 0.00 | 0.00 | 83 | 1006.7 |
| 20260502033615 | 27 | 234 | 1.6 | 4.8 | 0.00 | 0.00 | 0.00 | 83 | 1006.6 |
| 20260502033005 | 27 | 234 | 1.6 | 4.8 | 0.00 | 0.00 | 0.00 | 83 | 1006.6 |
| 20260502032527 | 27 | 233 | 0.0 | 4.8 | 0.00 | 0.00 | 0.00 | 83 | 1006.6 |
| 20260502032059 | 27 | 233 | 1.6 | 4.8 | 0.00 | 0.00 | 0.00 | 83 | 1006.4 |
| 20260502031623 | 27 | 232 | 1.6 | 4.8 | 0.00 | 0.00 | 0.00 | 83 | 1006.4 |
| 20260502031133 | 27 | 207 | 1.6 | 4.8 | 0.00 | 0.00 | 0.00 | 83 | 1006.4 |
| 20260502030515 | 27 | 197 | 0.0 | 4.8 | 0.00 | 0.00 | 0.00 | 83 | 1006.3 |
| 20260502030039 | 27 | 195 | 0.0 | 4.8 | 0.00 | 0.00 | 0.00 | 83 | 1006.2 |
| 20260502025614 | 27 | 192 | 0.0 | 4.8 | 0.00 | 0.00 | 0.00 | 83 | 1006.2 |
| 20260502025001 | 27 | 186 | 0.0 | 4.8 | 0.00 | 0.00 | 0.00 | 83 | 1006.1 |
| 20260502024527 | 27 | 186 | 1.6 | 6.4 | 0.00 | 0.00 | 0.00 | 83 | 1006.1 |
| 20260502024103 | 27 | 181 | 3.2 | 6.4 | 0.00 | 0.00 | 0.00 | 82 | 1006.0 |
| 20260502023626 | 27 | 177 | 3.2 | 6.4 | 0.00 | 0.00 | 0.00 | 83 | 1005.9 |
| 20260502023002 | 27 | 205 | 3.2 | 6.4 | 0.00 | 0.00 | 0.00 | 83 | 1005.9 |
| 20260502022520 | 27 | 238 | 3.2 | 8.0 | 0.00 | 0.00 | 0.00 | 82 | 1005.8 |
| 20260502022107 | 27 | 211 | 3.2 | 8.0 | 0.00 | 0.00 | 0.00 | 82 | 1005.8 |
| 20260502021625 | 27 | 175 | 4.8 | 9.7 | 0.00 | 0.00 | 0.00 | 83 | 1005.8 |
| 20260502021047 | 27 | 176 | 3.2 | 8.0 | 0.00 | 0.00 | 0.00 | 82 | 1005.7 |
| 20260502020607 | 27 | 233 | 3.2 | 8.0 | 0.00 | 0.00 | 0.00 | 82 | 1005.7 |
| 20260502020132 | 27 | 212 | 4.8 | 9.7 | 0.00 | 0.00 | 0.00 | 82 | 1005.7 |
| 20260502015519 | 27 | 203 | 3.2 | 9.7 | 0.00 | 0.00 | 0.00 | 82 | 1005.7 |
| 20260502015103 | 27 | 215 | 3.2 | 9.7 | 0.00 | 0.00 | 0.00 | 82 | 1005.7 |
| 20260502014620 | 27 | 186 | 3.2 | 9.7 | 0.00 | 0.00 | 0.00 | 82 | 1005.7 |
| 20260502014050 | 27 | 176 | 3.2 | 8.0 | 0.00 | 0.00 | 0.00 | 82 | 1005.7 |
| 20260502013609 | 27 | 212 | 3.2 | 9.7 | 0.00 | 0.00 | 0.00 | 82 | 1005.7 |
| 20260502013013 | 27 | 184 | 3.2 | 9.7 | 0.00 | 0.00 | 0.00 | 82 | 1005.7 |
| 20260502012533 | 27 | 178 | 4.8 | 9.7 | 0.00 | 0.00 | 0.00 | 82 | 1005.7 |
| 20260502012049 | 27 | 245 | 4.8 | 11.3 | 0.00 | 0.00 | 0.00 | 82 | 1005.6 |
| 20260502011613 | 27 | 196 | 4.8 | 11.3 | 0.00 | 0.00 | 0.00 | 82 | 1005.6 |
| 20260502011011 | 27 | 169 | 6.4 | 12.9 | 0.00 | 0.00 | 0.00 | 82 | 1005.6 |
| 20260502010528 | 27 | 297 | 4.8 | 11.3 | 0.00 | 0.00 | 0.00 | 82 | 1005.6 |
| 20260502010059 | 27 | 189 | 6.4 | 11.3 | 0.00 | 0.00 | 0.00 | 82 | 1005.6 |
| 20260502005613 | 27 | 190 | 6.4 | 9.7 | 0.00 | 0.00 | 0.00 | 82 | 1005.6 |
| 20260502005018 | 27 | 182 | 4.8 | 12.9 | 0.00 | 0.00 | 0.00 | 82 | 1005.6 |
| 20260502004535 | 27 | 235 | 6.4 | 11.3 | 0.00 | 0.00 | 0.00 | 81 | 1005.6 |
| 20260502004053 | 27 | 219 | 6.4 | 12.9 | 0.00 | 0.00 | 0.00 | 81 | 1005.6 |
| 20260502003610 | 27 | 174 | 8.0 | 11.3 | 0.00 | 0.00 | 0.00 | 81 | 1005.6 |
| 20260502003131 | 27 | 168 | 6.4 | 14.5 | 0.00 | 0.00 | 0.00 | 81 | 1005.6 |
| 20260502002512 | 27 | 236 | 6.4 | 14.5 | 0.00 | 0.00 | 0.00 | 81 | 1005.5 |
| 20260502002041 | 27 | 173 | 6.4 | 14.5 | 0.00 | 0.00 | 0.00 | 81 | 1005.5 |
| 20260502001602 | 27 | 178 | 4.8 | 14.5 | 0.00 | 0.00 | 0.00 | 81 | 1005.6 |
| 20260502001011 | 27 | 235 | 6.4 | 14.5 | 0.00 | 0.00 | 0.00 | 81 | 1005.5 |
| 20260502000530 | 27 | 153 | 8.0 | 16.1 | 0.00 | 0.00 | 0.00 | 81 | 1005.5 |
| 20260502000040 | 28 | 169 | 8.0 | 16.1 | 0.00 | 0.00 | 0.00 | 80 | 1005.5 |
| 20260501235619 | 28 | 233 | 6.4 | 14.5 | 0.00 | 0.00 | 0.00 | 81 | 1005.5 |
| 20260501235006 | 28 | 192 | 6.4 | 16.1 | 0.00 | 0.00 | 0.00 | 80 | 1005.4 |
| 20260501234540 | 28 | 214 | 8.0 | 17.7 | 0.00 | 0.00 | 0.00 | 80 | 1005.4 |
| 20260501234056 | 28 | 180 | 9.7 | 16.1 | 0.00 | 0.00 | 0.00 | 79 | 1005.4 |
| 20260501233617 | 28 | 225 | 6.4 | 16.1 | 0.00 | 0.00 | 0.00 | 80 | 1005.4 |
| 20260501233011 | 28 | 261 | 8.0 | 16.1 | 0.00 | 0.00 | 0.00 | 79 | 1005.4 |
| 20260501232530 | 28 | 250 | 4.8 | 16.1 | 0.00 | 0.00 | 0.00 | 79 | 1005.3 |
| 20260501232103 | 28 | 227 | 9.7 | 16.1 | 0.00 | 0.00 | 0.00 | 79 | 1005.4 |
| 20260501231622 | 28 | 166 | 8.0 | 16.1 | 0.00 | 0.00 | 0.00 | 79 | 1005.3 |
| 20260501231010 | 28 | 191 | 6.4 | 16.1 | 0.00 | 0.00 | 0.00 | 78 | 1005.4 |
| 20260501230531 | 28 | 298 | 9.7 | 22.5 | 0.00 | 0.00 | 0.00 | 78 | 1005.3 |
| 20260501230055 | 28 | 205 | 4.8 | 22.5 | 0.00 | 0.00 | 0.00 | 78 | 1005.4 |
| 20260501225609 | 28 | 263 | 9.7 | 16.1 | 0.00 | 0.00 | 0.00 | 77 | 1005.4 |
| 20260501225016 | 29 | 214 | 4.8 | 16.1 | 0.00 | 0.00 | 0.00 | 77 | 1005.5 |
| 20260501224530 | 29 | 192 | 4.8 | 17.7 | 0.00 | 0.00 | 0.00 | 76 | 1005.5 |
| 20260501224110 | 30 | 213 | 6.4 | 19.3 | 0.00 | 0.00 | 0.00 | 74 | 1005.5 |
| 20260501223626 | 30 | 235 | 8.0 | 19.3 | 0.00 | 0.00 | 0.00 | 74 | 1005.5 |
| 20260501223013 | 30 | 208 | 8.0 | 16.1 | 0.00 | 0.00 | 0.00 | 74 | 1005.6 |
| 20260501222526 | 30 | 223 | 6.4 | 16.1 | 0.00 | 0.00 | 0.00 | 73 | 1005.5 |
| 20260501222104 | 30 | 49 | 3.2 | 14.5 | 0.00 | 0.00 | 0.00 | 73 | 1005.6 |
| 20260501221622 | 30 | 270 | 6.4 | 14.5 | 0.00 | 0.00 | 0.00 | 73 | 1005.7 |
| 20260501221020 | 30 | 198 | 4.8 | 16.1 | 0.00 | 0.00 | 0.00 | 73 | 1005.7 |
| 20260501220530 | 30 | 219 | 8.0 | 16.1 | 0.00 | 0.00 | 0.00 | 72 | 1005.7 |
| 20260501220044 | 30 | 221 | 4.8 | 16.1 | 0.00 | 0.00 | 0.00 | 73 | 1005.7 |
| 20260501215535 | 30 | 338 | 4.8 | 19.3 | 0.00 | 0.00 | 0.00 | 72 | 1005.6 |
| 20260501215053 | 30 | 220 | 8.0 | 17.7 | 0.00 | 0.00 | 0.00 | 72 | 1005.7 |
| 20260501214615 | 30 | 235 | 6.4 | 16.1 | 0.00 | 0.00 | 0.00 | 71 | 1005.7 |
| 20260501214000 | 30 | 300 | 6.4 | 17.7 | 0.00 | 0.00 | 0.00 | 71 | 1005.8 |
| 20260501213516 | 30 | 242 | 8.0 | 17.7 | 0.00 | 0.00 | 0.00 | 71 | 1005.7 |
| 20260501213105 | 30 | 177 | 6.4 | 17.7 | 0.00 | 0.00 | 0.00 | 71 | 1005.7 |
| 20260501212619 | 30 | 217 | 6.4 | 16.1 | 0.00 | 0.00 | 0.00 | 71 | 1005.8 |
| 20260501212013 | 30 | 258 | 4.8 | 16.1 | 0.00 | 0.00 | 0.00 | 71 | 1005.9 |
| 20260501211533 | 30 | 222 | 4.8 | 16.1 | 0.00 | 0.00 | 0.00 | 70 | 1006.0 |
| 20260501211050 | 30 | 172 | 8.0 | 17.7 | 0.00 | 0.00 | 0.00 | 70 | 1006.1 |
| 20260501210608 | 30 | 252 | 6.4 | 17.7 | 0.00 | 0.00 | 0.00 | 70 | 1006.2 |
| 20260501210007 | 30 | 317 | 8.0 | 22.5 | 0.00 | 0.00 | 0.00 | 70 | 1006.2 |
| 20260501205526 | 30 | 254 | 9.7 | 19.3 | 0.00 | 0.00 | 0.00 | 69 | 1006.3 |
| 20260501204602 | 30 | 225 | 9.7 | 19.3 | 0.00 | 0.00 | 0.00 | 69 | 1006.3 |
| 20260501204006 | 30 | 222 | 6.4 | 16.1 | 0.00 | 0.00 | 0.00 | 69 | 1006.3 |
| 20260501203528 | 30 | 294 | 8.0 | 19.3 | 0.00 | 0.00 | 0.00 | 69 | 1006.4 |
| 20260501203046 | 30 | 238 | 6.4 | 19.3 | 0.00 | 0.00 | 0.00 | 69 | 1006.5 |
| 20260501202604 | 30 | 240 | 6.4 | 17.7 | 0.00 | 0.00 | 0.00 | 68 | 1006.6 |
| 20260501202132 | 30 | 282 | 4.8 | 20.9 | 0.00 | 0.00 | 0.00 | 68 | 1006.5 |
| 20260501201520 | 30 | 269 | 8.0 | 19.3 | 0.00 | 0.00 | 0.00 | 70 | 1006.6 |
| 20260501201048 | 30 | 267 | 6.4 | 19.3 | 0.00 | 0.00 | 0.00 | 70 | 1006.7 |
| 20260501200602 | 30 | 275 | 8.0 | 16.1 | 0.00 | 0.00 | 0.00 | 70 | 1006.7 |
| 20260501200012 | 30 | 244 | 8.0 | 17.7 | 0.00 | 0.00 | 0.00 | 70 | 1006.7 |
| 20260501195530 | 30 | 196 | 9.7 | 17.7 | 0.00 | 0.00 | 0.00 | 70 | 1006.7 |